Terminal Aerodrome Forecast
Issued by NWS Grand Forks, ND

Home | Current Version | Previous Version | Text Only | Print | Product List | Glossary Off
Versions: 1 2 3 4 5 6 7 8 9 10 11 12 13 14 15 16

000
FTUS43 KFGF 280520
TAFGFK
TAF
KGFK 280520Z 2806/2906 14010KT P6SM BKN250
     FM280800 14010KT P6SM BKN080
      TEMPO 2809/2811 3SM -TSRA BKN040CB
     FM281500 20015KT P6SM BKN050
     FM282100 22020G30KT P6SM SCT050=

USA.gov is the U.S. government's official web portal to all federal, state and local government web resources and services.